Time;durP1;ratioP1;P1;durP2;ratioP2;P2;SDS_P1;SDS_P2;PMS_P1;PMS_P2;Temp;Humidity;BMP_temperature;BMP_pressure;BME280_temperature;BME280_humidity;BME280_pressure;Samples;Min_cycle;Max_cycle;Signal;HPM_P1;HPM_P2
2022/12/17 13:08:19;;;;;;;36.17;23.63;;;;;;;14.30;86.63;97099.91;5086134;28;20653;-78
2022/12/17 13:10:47;;;;;;;36.63;23.17;;;;;;;14.39;86.55;97084.56;5085471;28;20225;-79
2022/12/17 13:13:18;;;;;;;34.03;22.87;;;;;;;14.31;86.36;97106.78;5102618;28;20198;-79
2022/12/17 13:15:52;;;;;;;35.23;23.50;;;;;;;14.29;87.47;97099.06;5085498;28;20237;-80
2022/12/17 13:18:21;;;;;;;35.37;24.03;;;;;;;14.29;87.32;97099.06;5086644;28;20214;-79
2022/12/17 13:20:58;;;;;;;36.00;24.50;;;;;;;14.29;87.46;97088.66;5086061;28;20289;-80
2022/12/17 13:23:28;;;;;;;36.20;24.73;;;;;;;14.29;87.12;97096.47;5101594;28;20188;-78
2022/12/17 13:26:40;;;;;;;36.43;25.03;;;;;;;14.28;87.34;97102.59;5086611;28;20611;-81
2022/12/17 13:29:12;;;;;;;;;;;;;;;14.24;87.37;97102.84;5086108;28;20191;-79
2022/12/17 13:32:01;;;;;;;;;;;;;;;14.21;87.34;97100.41;5069024;28;19920;-79
2022/12/17 13:34:41;;;;;;;;;;;;;;;14.11;87.96;97097.53;5087183;28;20015;-78
2022/12/17 13:37:08;;;;;;;;;;;;;;;14.12;88.11;97109.59;5085944;28;19931;-79
2022/12/17 13:39:34;;;;;;;;;;;;;;;14.05;88.31;97100.50;5089829;28;19923;-79
2022/12/17 13:42:02;;;;;;;;;;;;;;;14.02;88.33;97087.63;5090737;28;19920;-79
2022/12/17 13:44:38;;;;;;;;;;;;;;;13.99;89.21;97094.78;5091288;28;19927;-79
2022/12/17 13:47:18;;;;;;;;;;;;;;;13.98;89.16;97098.31;5090930;28;20035;-78
2022/12/17 13:49:49;;;;;;;;;;;;;;;14.01;89.15;97103.34;5090164;28;20444;-78
2022/12/17 13:52:36;;;;;;;;;;;;;;;13.94;89.39;97100.28;5091278;28;20018;-79
2022/12/17 13:55:07;;;;;;;;;;;;;;;13.94;89.60;97108.06;5090616;28;19920;-79
2022/12/17 13:57:35;;;;;;;;;;;;;;;13.98;90.02;97106.97;5090878;28;19982;-79
2022/12/17 14:00:03;;;;;;;;;;;;;;;13.94;90.74;97115.88;5090711;28;20307;-79
2022/12/17 14:02:38;;;;;;;;;;;;;;;13.97;90.57;97118.31;5090285;28;19920;-78
2022/12/17 14:05:06;;;;;;;;;;;;;;;13.99;90.33;97111.25;5091345;28;20410;-79
2022/12/17 14:07:36;;;;;;;;;;;;;;;13.94;90.07;97115.88;5089600;28;19920;-79
2022/12/17 14:10:04;;;;;;;;;;;;;;;13.94;90.02;97125.47;5090619;28;19920;-80
2022/12/17 14:12:34;;;;;;;;;;;;;;;13.88;90.86;97124.91;5089473;28;20007;-80
2022/12/17 14:15:02;;;;;;;;;;;;;;;13.86;91.03;97121.53;5072452;28;19926;-78
2022/12/17 14:17:47;;;;;;;;;;;;;;;13.81;90.98;97122.72;5071778;28;19919;-78
2022/12/17 14:20:15;;;;;;;;;;;;;;;13.67;91.44;97120.06;5089720;28;20031;-80
2022/12/17 14:22:43;;;;;;;;;;;;;;;13.70;91.55;97112.09;5089232;28;20371;-76
2022/12/17 14:25:24;;;;;;;;;;;;;;;13.69;91.87;97108.66;5089456;28;19958;-81
2022/12/17 14:27:51;;;;;;;;;;;;;;;13.62;91.96;97119.50;5090613;28;19927;-78
2022/12/17 14:30:20;;;;;;;;;;;;;;;13.56;91.94;97120.66;5089463;28;19920;-79
2022/12/17 14:32:47;;;;;;;;;;;;;;;13.50;92.55;97138.38;5089920;28;19926;-78
2022/12/17 14:35:28;;;;;;;;;;;;;;;13.52;92.63;97139.13;5073386;28;19924;-77
2022/12/17 14:37:55;;;;;;;;;;;;;;;13.54;92.15;97152.94;5089815;28;19927;-78
2022/12/17 14:40:24;;;;;;;;;;;;;;;13.51;92.26;97147.88;5091229;28;19977;-77
2022/12/17 14:42:52;;;;;;;;;;;;;;;13.47;92.31;97148.97;5071658;28;19920;-78
2022/12/17 14:45:21;;;;;;;;;;;;;;;13.39;92.58;97138.16;5090168;28;19923;-78
2022/12/17 14:47:56;;;;;;;;;;;;;;;13.35;92.85;97147.06;5090098;28;19920;-78
2022/12/17 14:50:25;;;;;;;;;;;;;;;13.29;93.44;97143.00;5103929;28;19932;-77
2022/12/17 14:52:53;;;;;;;;;;;;;;;13.30;93.26;97154.25;5091052;28;19927;-76
2022/12/17 14:55:30;;;;;;;;;;;;;;;13.31;93.63;97155.94;5089164;28;19920;-77
2022/12/17 14:58:08;;;;;;;;;;;;;;;13.34;93.12;97155.75;5090053;28;19920;-77
2022/12/17 15:00:38;;;;;;;;;;;;;;;13.34;93.94;97163.56;5088990;28;19973;-77
2022/12/17 15:03:08;;;;;;;;;;;;;;;13.28;93.53;97163.91;5089722;28;19920;-78
2022/12/17 15:05:36;;;;;;;;;;;;;;;13.22;93.75;97174.63;5089550;28;19924;-77
2022/12/17 15:08:03;;;;;;;;;;;;;;;13.21;93.60;97183.38;5088940;28;19920;-77
2022/12/17 15:10:30;;;;;;;;;;;;;;;13.21;93.73;97181.59;5090052;28;20383;-77
2022/12/17 15:12:57;;;;;;;;;;;;;;;13.18;93.85;97183.53;5088370;28;19920;-77
2022/12/17 15:15:23;;;;;;;;;;;;;;;13.18;93.83;97180.94;5089656;28;19920;-78
2022/12/17 15:17:50;;;;;;;;;;;;;;;13.14;93.51;97182.00;5070773;28;20016;-77
2022/12/17 15:20:18;;;;;;;;;;;;;;;13.13;93.56;97186.38;5071389;28;19935;-79
2022/12/17 15:22:45;;;;;;;;;;;;;;;13.10;93.19;97180.50;5104484;28;19928;-77
2022/12/17 15:25:13;;;;;;;;;;;;;;;12.92;93.96;97188.31;5061490;28;19920;-78
2022/12/17 15:27:40;;;;;;;;;;;;;;;12.90;93.99;97200.56;5069316;28;19924;-77
2022/12/17 15:30:08;;;;;;;;;;;;;;;12.87;93.58;97203.31;5067877;28;20388;-77
2022/12/17 15:32:35;;;;;;;;;;;;;;;12.89;94.52;97198.88;5069333;28;19931;-79
2022/12/17 15:35:02;;;;;;;;;;;;;;;12.86;94.95;97198.19;5068016;28;20375;-79
2022/12/17 15:37:29;;;;;;;;;;;;;;;12.83;95.48;97194.00;5050670;28;19920;-79
2022/12/17 15:39:55;;;;;;;;;;;;;;;12.86;95.00;97196.44;5068399;28;20698;-77
2022/12/17 15:45:08;;;;;;;;;;;;;;;12.83;95.05;97175.81;5069244;28;20387;-77
2022/12/17 15:47:34;;;;;;;;;;;;;;;12.87;95.49;97163.50;5067556;28;19924;-77
2022/12/17 15:50:02;;;;;;;;;;;;;;;12.86;95.06;97172.19;5084508;28;19985;-77
2022/12/17 15:52:29;;;;;;;;;;;;;;;12.85;94.33;97194.78;5067965;28;20462;-78
2022/12/17 15:54:56;;;;;;;;;;;;;;;12.69;95.41;97211.22;5068618;28;19939;-78
2022/12/17 15:57:23;;;;;;;;;;;;;;;12.80;95.65;97204.56;5072684;28;20306;-79
2022/12/17 15:59:50;;;;;;;;;;;;;;;12.74;95.41;97204.88;5088205;28;19924;-77
2022/12/17 16:02:17;;;;;;;;;;;;;;;12.85;96.41;97202.56;5088439;28;19920;-78
2022/12/17 16:04:43;;;;;;;;;;;;;;;12.83;96.14;97199.22;5087278;28;19926;-77
2022/12/17 16:07:10;;;;;;;;;;;;;;;12.91;96.05;97211.78;5088540;28;19920;-77
2022/12/17 16:09:37;;;;;;;;;;;;;;;12.85;95.84;97214.72;5087278;28;19969;-79
2022/12/17 16:12:04;;;;;;;;;;;;;;;12.91;95.86;97225.63;5088320;28;19924;-77
2022/12/17 16:14:30;;;;;;;;;;;;;;;12.87;95.90;97244.06;5087420;28;19920;-77
2022/12/17 16:16:57;;;;;;;;;;;;;;;12.90;95.51;97246.53;5069560;28;20487;-77
2022/12/17 16:19:24;;;;;;;;;;;;;;;12.93;94.88;97247.19;5088232;28;19927;-78
2022/12/17 16:21:51;;;;;;;;;;;;;;;12.89;94.58;97256.06;5069152;28;20345;-77
2022/12/17 16:24:18;;;;;;;;;;;;;;;12.90;94.38;97265.53;5088422;28;19920;-77
2022/12/17 16:26:45;;;;;;;;;;;;;;;12.89;94.42;97256.06;5087115;28;20372;-77
2022/12/17 16:29:12;;;;;;;;;;;;;;;12.88;94.31;97267.38;5088660;28;20387;-77
2022/12/17 16:31:38;;;;;;;;;;;;;;;12.86;93.86;97266.59;5087066;28;19927;-78
2022/12/17 16:34:09;;;;;;;;;;;;;;;12.84;94.40;97267.59;5087847;28;20466;-78
2022/12/17 16:36:36;;;;;;;;;;;;;;;12.84;94.28;97233.81;5069402;28;20288;-78
2022/12/17 16:39:03;;;;;;;;;;;;;;;12.55;95.59;97227.50;5087279;28;19920;-77
2022/12/17 16:41:30;;;;;;;;;;;;;;;12.49;96.15;97230.41;5087887;28;20383;-78
2022/12/17 16:43:57;;;;;;;;;;;;;;;12.41;96.63;97248.13;5086576;28;19920;-79
2022/12/17 16:46:31;;;;;;;;;;;;;;;12.57;96.70;97259.44;5088196;28;19920;-78
2022/12/17 16:49:02;;;;;;;;;;;;;;;12.57;96.27;97261.22;5087223;28;19967;-79
2022/12/17 16:51:30;;;;;;;;;;;;;;;12.61;95.78;97260.97;5087922;28;19920;-78
2022/12/17 16:53:57;;;;;;;;;;;;;;;12.66;95.62;97263.34;5087737;28;20330;-79
2022/12/17 16:56:26;;;;;;;;;;;;;;;12.61;96.08;97268.75;5086934;28;19927;-79
2022/12/17 16:58:54;;;;;;;;;;;;;;;12.34;96.55;97227.75;5069850;28;20023;-79
2022/12/17 17:01:22;;;;;;;;;;;;;;;12.62;96.49;97282.59;5086113;28;19920;-77
2022/12/17 17:03:52;;;;;;;;;;;;;;;12.59;95.95;97277.56;5087668;28;19977;-78
2022/12/17 17:06:19;;;;;;;;;;;;;;;12.60;96.10;97261.91;5086808;28;20472;-79
2022/12/17 17:08:46;;;;;;;;;;;;;;;12.53;96.06;97264.88;5088159;28;19920;-79
2022/12/17 17:11:14;;;;;;;;;;;;;;;12.45;97.10;97260.06;5069410;28;19920;-77
2022/12/17 17:13:41;;;;;;;;;;;;;;;12.46;98.14;97266.09;5067838;28;20023;-78
2022/12/17 17:16:08;;;;;;;;;;;;;;;12.58;97.85;97284.53;5087650;28;19920;-77
2022/12/17 17:18:35;;;;;;;;;;;;;;;12.63;97.18;97272.13;5086184;28;19924;-78
2022/12/17 17:21:33;;;;;;;;;;;;;;;12.67;97.09;97278.03;5088005;28;19920;-77
2022/12/17 17:24:05;;;;;;;;;;;;;;;12.60;97.21;97281.84;5078064;28;19920;-78
2022/12/17 17:26:37;;;;;;;;;;;;;;;12.67;97.08;97289.28;5087157;28;19920;-78
2022/12/17 17:29:04;;;;;;;;;;;;;;;12.74;96.25;97281.97;5087803;28;19920;-77
2022/12/17 17:31:31;;;;;;;;;;;;;;;12.71;95.98;97293.41;5086401;28;19931;-78
2022/12/17 17:34:18;;;;;;;;;;;;;;;12.70;95.81;97296.03;5088083;28;19943;-78
2022/12/17 17:36:45;;;;;;;;;;;;;;;12.73;95.31;97290.72;5086038;28;19955;-78
2022/12/17 17:39:12;;;;;;;;;;;;;;;12.72;95.02;97289.88;5069006;28;19939;-78
2022/12/17 17:41:38;;;;;;;;;;;;;;;12.58;94.87;97294.06;5069092;28;20019;-78
2022/12/17 17:44:12;;;;;;;;;;;;;;;12.52;96.09;97308.22;5086745;28;19920;-80
2022/12/17 17:46:40;;;;;;;;;;;;;;;12.51;95.46;97321.28;5087775;28;19920;-78
2022/12/17 17:49:07;;;;;;;;;;;;;;;12.43;96.07;97318.19;5086498;28;19927;-78
2022/12/17 17:51:36;;;;;;;;;;;;;;;12.49;95.95;97312.72;5088073;28;19926;-76
2022/12/17 17:54:22;;;;;;;;;;;;;;;12.54;94.99;97321.13;5072571;28;19935;-77
2022/12/17 17:56:49;;;;;;;;;;;;;;;12.54;95.01;97316.75;5103437;28;20304;-77
2022/12/17 17:59:19;;;;;;;;;;;;;;;12.46;95.16;97303.31;5087936;28;20010;-78
2022/12/17 18:01:48;;;;;;;;;;;;;;;12.34;95.74;97303.91;5086575;28;19921;-77
2022/12/17 18:04:16;;;;;;;;;;;;;;;12.25;95.72;97304.34;5088007;28;19919;-77
2022/12/17 18:06:46;;;;;;;;;;;;;;;12.21;95.91;97301.06;5087561;28;20639;-78
2022/12/17 18:09:33;;;;;;;;;;;;;;;12.13;96.10;97295.41;5087377;28;19939;-76
2022/12/17 18:13:53;;;;;;;;;;;;;;;12.09;95.76;97295.63;5087371;28;20303;-78
2022/12/17 18:14:47;;;;;;;;;;;;;;;12.08;96.33;97293.91;5086261;28;20484;-77
2022/12/17 18:17:34;;;;;;;;;;;;;;;12.07;97.35;97295.69;5087487;28;20379;-79
2022/12/17 18:20:01;;;;;;;;;;;;;;;12.06;97.62;97293.16;5086210;28;19931;-78
2022/12/17 18:22:28;;;;;;;;;;;;;;;12.13;98.46;97292.81;5087158;28;19920;-78
2022/12/17 18:24:55;;;;;;;;;;;;;;;12.12;97.10;97298.91;5086744;28;20351;-78
2022/12/17 18:27:24;;;;;;;;;;;;;;;12.03;96.96;97299.34;5089716;28;19978;-78
2022/12/17 18:29:51;;;;;;;;;;;;;;;12.11;96.59;97309.34;5091098;28;20626;-78
2022/12/17 18:32:17;;;;;;;;;;;;;;;12.15;95.94;97308.31;5089801;28;19927;-78
2022/12/17 18:34:44;;;;;;;;;;;;;;;11.88;95.63;97268.06;5091218;28;19963;-78
2022/12/17 18:37:11;;;;;;;;;;;;;;;12.02;95.82;97322.75;5070967;28;20413;-79
2022/12/17 18:39:38;;;;;;;;;;;;;;;12.06;96.04;97321.69;5090899;28;20403;-79
2022/12/17 18:44:50;;;;;;;;;;;;;;;12.11;95.16;97317.16;5089850;28;19928;-78
2022/12/17 18:47:17;;;;;;;;;;;;;;;12.07;95.67;97318.22;5090484;28;19955;-79
2022/12/17 18:49:44;;;;;;;;;;;;;;;12.02;95.95;97312.38;5089112;28;19963;-79
2022/12/17 18:52:11;;;;;;;;;;;;;;;12.00;95.87;97322.84;5090657;28;19920;-78
2022/12/17 18:54:43;;;;;;;;;;;;;;;12.13;95.63;97321.38;5089866;28;20381;-79
2022/12/17 18:57:10;;;;;;;;;;;;;;;12.13;95.09;97317.91;5090227;28;19920;-79
2022/12/17 18:59:39;;;;;;;;;;;;;;;12.09;95.68;97319.81;5089842;28;19927;-77
2022/12/17 19:02:11;;;;;;;;;;;;;;;12.04;95.19;97329.56;5089851;28;19931;-79
2022/12/17 19:04:38;;;;;;;;;;;;;;;11.92;95.26;97326.69;5090244;28;20376;-79
2022/12/17 19:07:04;;;;;;;;;;;;;;;11.85;96.15;97325.31;5088587;28;19920;-79
2022/12/17 19:09:35;;;;;;;;;;;;;;;11.86;96.00;97337.38;5090576;28;19930;-78
2022/12/17 19:12:06;;;;;;;;;;;;;;;11.91;95.58;97335.41;5088945;28;19926;-78
2022/12/17 19:14:33;;;;;;;;;;;;;;;11.79;95.98;97335.94;5089883;28;19920;-78
2022/12/17 19:17:00;;;;;;;;;;;;;;;11.71;96.17;97331.13;5089357;28;20349;-79
2022/12/17 19:19:27;;;;;;;;;;;;;;;11.67;95.67;97342.56;5089312;28;20038;-78
2022/12/17 19:21:54;;;;;;;;;;;;;;;11.67;95.32;97346.88;5089885;28;19920;-79
2022/12/17 19:24:21;;;;;;;;;;;;;;;11.68;95.63;97352.03;5070857;28;19950;-78
2022/12/17 19:26:49;;;;;;;;;;;;;;;11.77;95.49;97355.94;5071710;28;20015;-78
2022/12/17 19:29:16;;;;;;;;;;;;;;;11.78;94.76;97370.63;5088791;28;19920;-78
2022/12/17 19:31:44;;;;;;;;;;;;;;;11.82;94.61;97373.00;5089727;28;19939;-78
2022/12/17 19:34:13;;;;;;;;;;;;;;;11.74;94.52;97369.06;5089231;28;19977;-78
2022/12/17 19:36:40;;;;;;;;;;;;;;;11.70;94.81;97373.56;5089101;28;19920;-78
2022/12/17 19:39:07;;;;;;;;;;;;;;;11.56;94.29;97375.06;5089577;28;19920;-78
2022/12/17 19:41:34;;;;;;;;;;;;;;;11.55;95.09;97384.56;5070317;28;19920;-79
2022/12/17 19:44:05;;;;;;;;;;;;;;;11.59;93.89;97380.09;5089470;28;19920;-79
2022/12/17 19:46:32;;;;;;;;;;;;;;;11.58;94.77;97381.81;5069893;28;19926;-79
2022/12/17 19:48:59;;;;;;;;;;;;;;;11.48;94.67;97393.53;5089425;28;20375;-78
2022/12/17 19:51:27;;;;;;;;;;;;;;;11.52;95.29;97397.66;5088655;28;19977;-79
2022/12/17 19:53:55;;;;;;;;;;;;;;;11.33;95.67;97408.00;5088931;28;19943;-78
2022/12/17 19:56:27;;;;;;;;;;;;;;;11.21;96.20;97418.88;5071029;28;20299;-77
2022/12/17 19:58:55;;;;;;;;;;;;;;;11.28;97.02;97425.50;5088877;28;19981;-78
2022/12/17 20:01:23;;;;;;;;;;;;;;;11.30;96.05;97420.25;5089902;28;19920;-81
2022/12/17 20:03:51;;;;;;;;;;;;;;;11.42;95.52;97419.72;5088271;28;19926;-77
2022/12/17 20:06:20;;;;;;;;;;;;;;;11.44;95.45;97423.09;5089508;28;19920;-79
2022/12/17 20:08:46;;;;;;;;;;;;;;;11.52;94.70;97425.38;5088190;28;19919;-77
2022/12/17 20:11:32;;;;;;;;;;;;;;;11.56;94.38;97426.94;5088846;28;19963;-78
2022/12/17 20:14:26;;;;;;;;;;;;;;;11.41;94.32;97429.28;5088969;28;19919;-76
2022/12/17 20:16:54;;;;;;;;;;;;;;;11.45;94.93;97430.81;5086386;28;20350;-76
2022/12/17 20:19:22;;;;;;;;;;;;;;;11.43;94.22;97440.44;5070891;28;19969;-77
2022/12/17 20:21:50;;;;;;;;;;;;;;;11.58;94.24;97440.66;5088025;28;19986;-79
2022/12/17 20:24:17;;;;;;;;;;;;;;;11.37;94.57;97452.81;5088478;28;19920;-77
2022/12/17 20:26:45;;;;;;;;;;;;;;;11.42;94.94;97456.88;5088579;28;19920;-78
2022/12/17 20:29:12;;;;;;;;;;;;;;;11.46;95.06;97455.84;5087372;28;20366;-78
2022/12/17 20:31:41;;;;;;;;;;;;;;;11.48;95.10;97463.53;5070744;28;19950;-77
2022/12/17 20:34:17;;;;;;;;;;;;;;;11.40;94.88;97461.28;5087272;28;20459;-78
2022/12/17 20:36:44;;;;;;;;;;;;;;;11.39;94.93;97459.63;5088465;28;19920;-76
2022/12/17 20:39:12;;;;;;;;;;;;;;;11.39;94.18;97461.38;5087272;28;19920;-77
2022/12/17 20:41:39;;;;;;;;;;;;;;;11.23;94.59;97455.97;5087789;28;19949;-75
2022/12/17 20:44:07;;;;;;;;;;;;;;;11.18;95.42;97462.25;5087339;28;19924;-77
2022/12/17 20:46:35;;;;;;;;;;;;;;;11.34;94.81;97464.13;5087283;28;19920;-76
2022/12/17 20:49:03;;;;;;;;;;;;;;;11.48;94.65;97473.09;5087764;28;20034;-77
2022/12/17 20:51:30;;;;;;;;;;;;;;;11.53;93.65;97473.72;5102130;28;19920;-76
2022/12/17 20:53:57;;;;;;;;;;;;;;;11.61;93.33;97482.03;5085989;28;20390;-78
2022/12/17 20:56:25;;;;;;;;;;;;;;;11.58;93.19;97483.00;5086830;28;19927;-77
2022/12/17 20:58:53;;;;;;;;;;;;;;;11.37;93.28;97481.31;5070496;28;19927;-76
2022/12/17 21:01:21;;;;;;;;;;;;;;;11.39;94.35;97498.50;5087960;28;19920;-76
2022/12/17 21:03:49;;;;;;;;;;;;;;;11.48;94.09;97500.69;5085367;28;20536;-76
2022/12/17 21:06:16;;;;;;;;;;;;;;;11.49;93.32;97511.94;5104147;28;19920;-77
2022/12/17 21:08:44;;;;;;;;;;;;;;;11.48;93.49;97513.66;5086691;28;20293;-78
2022/12/17 21:11:16;;;;;;;;;;;;;;;11.48;93.05;97514.59;5087880;28;20011;-78
2022/12/17 21:13:43;;;;;;;;;;;;;;;11.42;94.01;97510.47;5086351;28;19920;-77
2022/12/17 21:16:11;;;;;;;;;;;;;;;11.54;93.45;97520.34;5088149;28;19925;-77
2022/12/17 21:18:39;;;;;;;;;;;;;;;11.48;93.16;97518.84;5087074;28;19927;-77
2022/12/17 21:21:08;;;;;;;;;;;;;;;11.50;92.92;97525.75;5087053;28;19927;-77
2022/12/17 21:23:39;;;;;;;;;;;;;;;11.52;92.69;97534.31;5087983;28;19934;-77
2022/12/17 21:26:47;;;;;;;470.77;238.55;;;;;;;12.14;92.63;97535.91;5083556;27;20913;-79
2022/12/17 21:29:16;;;;;;;439.03;183.93;;;;;;;11.95;91.12;97539.41;5084321;28;20673;-78
2022/12/17 21:31:50;;;;;;;440.13;187.00;;;;;;;11.65;91.67;97532.88;5084365;28;20189;-80
2022/12/17 21:34:23;;;;;;;401.33;151.10;;;;;;;11.21;93.16;97529.53;5085399;28;20289;-78
2022/12/17 21:36:54;;;;;;;393.27;144.57;;;;;;;10.99;94.94;97523.50;5083966;28;20781;-81
2022/12/17 21:44:40;;;;;;;164.00;107.90;;;;;;;11.49;94.96;97530.09;5105532;28;20227;-76
2022/12/17 21:47:07;;;;;;;119.63;78.17;;;;;;;11.43;94.61;97536.38;5103834;28;20195;-75
2022/12/17 21:49:34;;;;;;;88.37;64.73;;;;;;;11.34;95.34;97522.94;5105608;28;20276;-78
2022/12/17 21:52:01;;;;;;;87.83;56.27;;;;;;;11.58;95.01;97523.69;5103524;28;20238;-78
2022/12/17 21:54:28;;;;;;;92.77;58.80;;;;;;;11.21;95.00;97522.56;5105017;28;20195;-78
2022/12/17 21:56:55;;;;;;;99.17;59.03;;;;;;;11.23;95.07;97523.34;5103447;28;20240;-76
2022/12/17 21:59:22;;;;;;;110.60;67.60;;;;;;;11.29;95.17;97528.28;5104751;28;20216;-76
2022/12/17 22:01:50;;;;;;;103.47;58.90;;;;;;;11.20;95.16;97523.50;5086007;28;20315;-76
2022/12/17 22:04:17;;;;;;;94.00;59.07;;;;;;;11.40;95.64;97522.66;5090403;28;20189;-75
2022/12/17 22:06:44;;;;;;;128.10;80.60;;;;;;;11.11;95.16;97508.31;5091031;28;20601;-75
2022/12/17 22:09:29;;;;;;;195.40;122.13;;;;;;;10.63;97.34;97466.22;5095298;28;20212;-78
2022/12/17 22:15:02;;;;;;;162.13;94.90;;;;;;;10.98;99.60;97496.75;5066643;28;20683;-76
2022/12/17 22:17:30;;;;;;;150.40;82.03;;;;;;;11.05;99.39;97493.00;5100924;28;20226;-76
2022/12/17 22:19:57;;;;;;;132.10;81.60;;;;;;;11.07;98.38;97490.34;5104603;28;20207;-76
2022/12/17 22:22:23;;;;;;;127.67;80.40;;;;;;;11.06;97.65;97499.03;5103140;28;20230;-77
2022/12/17 22:24:50;;;;;;;132.27;74.97;;;;;;;11.04;96.92;97509.47;5104666;28;20207;-77
2022/12/17 22:27:17;;;;;;;115.13;67.50;;;;;;;10.89;96.72;97478.13;5103295;28;20208;-76
2022/12/17 22:35:16;;;;;;;111.20;62.23;;;;;;;10.97;96.63;97496.81;5084917;28;20590;-77
2022/12/17 22:38:05;;;;;;;104.53;65.13;;;;;;;10.89;97.63;97515.25;5068906;28;20196;-78
2022/12/17 22:40:52;;;;;;;103.43;60.57;;;;;;;10.81;97.76;97504.34;5083543;28;20243;-80
2022/12/17 22:43:39;;;;;;;102.57;60.97;;;;;;;10.84;98.04;97508.56;5082186;28;20182;-78
2022/12/17 22:46:26;;;;;;;96.03;56.70;;;;;;;10.90;97.69;97529.06;5084059;28;20198;-77
2022/12/17 22:48:54;;;;;;;84.63;56.57;;;;;;;11.03;97.41;97540.63;5082185;28;20595;-83
2022/12/17 22:51:21;;;;;;;82.93;51.17;;;;;;;10.90;97.26;97547.19;5080851;28;20208;-80
2022/12/17 22:54:00;;;;;;;84.23;51.03;;;;;;;10.82;96.93;97531.94;5070366;28;20196;-80
2022/12/17 22:56:28;;;;;;;77.37;47.70;;;;;;;10.63;96.74;97510.25;5068721;28;20592;-76
2022/12/17 22:59:17;;;;;;;74.67;46.53;;;;;;;10.76;96.87;97537.34;5070246;28;20724;-76
2022/12/17 23:01:45;;;;;;;72.03;45.33;;;;;;;10.79;96.59;97539.00;5068576;28;20231;-81
2022/12/17 23:04:14;;;;;;;66.33;43.37;;;;;;;10.79;96.72;97550.19;5070624;28;20288;-79
2022/12/17 23:06:44;;;;;;;69.77;44.90;;;;;;;10.65;97.23;97542.13;5069410;28;20188;-79
2022/12/17 23:09:12;;;;;;;68.57;43.43;;;;;;;10.58;97.78;97540.66;5069177;28;20203;-80
2022/12/17 23:11:39;;;;;;;59.57;41.47;;;;;;;10.74;97.10;97557.28;5069909;28;20768;-80
2022/12/17 23:14:07;;;;;;;59.20;38.80;;;;;;;10.76;96.99;97559.84;5076557;28;20222;-80
2022/12/17 23:16:37;;;;;;;56.43;39.10;;;;;;;10.66;96.89;97554.16;5089917;28;20197;-79
2022/12/17 23:19:04;;;;;;;57.13;39.10;;;;;;;10.56;97.18;97551.06;5088512;28;20717;-80
2022/12/17 23:21:31;;;;;;;55.03;37.23;;;;;;;10.64;97.64;97555.97;5090176;28;20220;-79
2022/12/17 23:23:58;;;;;;;49.80;34.30;;;;;;;10.61;97.52;97550.91;5088990;28;20280;-78
2022/12/17 23:26:29;;;;;;;51.27;33.40;;;;;;;10.44;97.04;97535.16;5088899;28;20180;-79
2022/12/17 23:28:58;;;;;;;50.07;33.90;;;;;;;10.64;97.18;97572.34;5089620;28;20200;-80
2022/12/17 23:31:27;;;;;;;57.13;37.20;;;;;;;10.39;97.75;97568.13;5088327;28;20205;-79
2022/12/17 23:33:54;;;;;;;50.07;34.00;;;;;;;10.17;99.24;97552.53;5089863;28;20943;-79
2022/12/17 23:36:23;;;;;;;49.67;33.40;;;;;;;10.27;98.73;97566.84;5088906;28;20278;-79
2022/12/17 23:38:51;;;;;;;50.37;32.10;;;;;;;10.49;98.51;97585.00;5089640;28;20283;-79
2022/12/17 23:41:21;;;;;;;45.07;30.80;;;;;;;10.54;98.15;97593.47;5088297;28;20249;-79
2022/12/17 23:43:49;;;;;;;43.83;31.63;;;;;;;10.48;98.15;97594.53;5089018;28;20193;-80
2022/12/17 23:46:17;;;;;;;43.83;28.53;;;;;;;10.48;98.20;97583.34;5089528;28;20192;-79
2022/12/17 23:48:47;;;;;;;40.73;29.23;;;;;;;10.54;98.12;97586.53;5087599;28;20200;-79
2022/12/17 23:51:16;;;;;;;41.53;28.77;;;;;;;10.61;97.81;97600.13;5089152;28;20231;-79
2022/12/17 23:53:43;;;;;;;53.47;34.50;;;;;;;10.27;99.00;97608.25;5069295;28;20659;-75
2022/12/17 23:56:16;;;;;;;55.63;33.93;;;;;;;10.13;99.47;97601.88;5089299;28;20626;-80
2022/12/17 23:58:45;;;;;;;48.53;33.10;;;;;;;10.20;100.00;97617.13;5086782;28;22132;-76
